Flight Track Log - Related Links

Times and Time Zones

All times are in EDT time to prevent confusion due to time zone crossing. See the UAL3744 flight status page for this flight to view local times or setup timezone preferences in your user account.

Time Position Orientation Groundspeed Altitude Reporting Facility
EDT Latitude Longitude Course Direction KTS MPH feet Rate Location/Type
Sat 05:33:13 PM 38.9000 -77.4667 229° Southwest 187 215 2,300  Level Potomac TRACON
Sat 05:34:07 PM 38.8667 -77.5167 229° Southwest 244 281 3,700 2,243 Climbing Potomac TRACON
Sat 05:35:08 PM 38.8500 -77.6167 258° West 262 302 6,600 2,593 Climbing Potomac TRACON
Sat 05:35:28 PM 38.8394 -77.6597 253° West 267 307 7,200 2,000 Climbing Washington Center
Sat 05:36:29 PM 38.8169 -77.7417 251° West 284 327 9,300 2,083 Climbing Washington Center
Sat 05:37:29 PM 38.7986 -77.8372 256° West 299 344 11,400 2,085 Climbing Washington Center
Sat 05:38:27 PM 38.7903 -77.9486 265° West 332 382 13,400 1,916 Climbing Washington Center
Sat 05:39:28 PM 38.8192 -78.0617 288° West 340 391 15,200 1,574 Climbing Washington Center
Sat 05:40:29 PM 38.8481 -78.1850 287° West 352 405 16,600 1,438 Climbing Washington Center
Sat 05:41:29 PM 38.8533 -78.3186 273° West 366 421 18,100 1,600 Climbing Washington Center
Sat 05:42:29 PM 38.8522 -78.4572 269° West 378 435 19,800 1,678 Climbing Washington Center
Sat 05:43:27 PM 38.8511 -78.5878 269° West 383 441 21,400 1,513 Climbing Washington Center
Sat 05:44:28 PM 38.8494 -78.7289 269° West 383 441 22,800 1,328 Climbing Washington Center
Sat 05:45:29 PM 38.8481 -78.8675 269° West 388 447 24,100 1,190 Climbing Washington Center
Sat 05:46:29 PM 38.8461 -79.0086 269° West 388 447 25,200 1,220 Climbing Washington Center
Sat 05:47:27 PM 38.8439 -79.1525 269° West 398 458 26,500 915 Climbing Washington Center
Sat 05:48:27 PM 38.8231 -79.2956 259° West 404 465 27,000 248 Climbing Washington Center
Sat 05:49:28 PM 38.8019 -79.4383 259° West 404 465 27,000  Level Washington Center
Sat 05:50:29 PM 38.7694 -79.6017 256° West 415 478 27,000 149 Level Washington Center
Sat 05:51:29 PM 38.7436 -79.7442 257° West 415 478 27,300 966 Climbing Washington Center
Sat 05:52:27 PM 38.7225 -79.8706 258° West 420 483 28,900 1,563 Climbing Washington Center
Sat 05:53:28 PM 38.6947 -80.0072 255° West 410 472 30,400 1,377 Climbing Washington Center
Sat 05:54:29 PM 38.6711 -80.1389 257° West 398 458 31,700 1,079 Climbing Washington Center
Sat 05:54:57 PM 38.6567 -80.2014 254° West 375 432 32,000 539 Climbing Indianapolis Center
Sat 05:55:58 PM 38.6317 -80.3333 256° West 380 437 32,500 774 Climbing Indianapolis Center
Sat 05:57:01 PM 38.6075 -80.4639 257° West 378 435 33,600 726 Climbing Indianapolis Center
Sat 05:58:02 PM 38.5831 -80.5919 256° West 371 427 34,000 244 Climbing Indianapolis Center
Sat 05:59:04 PM 38.5569 -80.7244 256° West 382 440 34,100 488 Climbing Indianapolis Center
Sat 06:00:05 PM 38.5317 -80.8561 256° West 382 440 35,000 927 Climbing Indianapolis Center
Sat 06:01:07 PM 38.5008 -81.0139 256° West 381 438 36,000 488 Climbing Indianapolis Center
Sat 06:02:08 PM 38.4750 -81.1433 256° West 376 433 36,000  Level Indianapolis Center
Sat 06:03:10 PM 38.4486 -81.2761 256° West 381 438 36,000  Level Indianapolis Center
Sat 06:04:11 PM 38.4219 -81.4114 256° West 388 447 36,000  Level Indianapolis Center
Sat 06:05:13 PM 38.3956 -81.5453 256° West 387 445 36,000  Level Indianapolis Center
Sat 06:06:15 PM 38.3678 -81.6803 255° West 389 448 36,000  Level Indianapolis Center
Sat 06:07:16 PM 38.3375 -81.8128 254° West 388 447 36,000  Level Indianapolis Center
Sat 06:08:18 PM 38.3011 -81.9431 250° West 389 448 36,000  Level Indianapolis Center
Sat 06:09:19 PM 38.2642 -82.0742 250° West 392 451 36,000  Level Indianapolis Center
Sat 06:10:21 PM 38.2278 -82.2047 251° West 392 451 36,000  Level Indianapolis Center
Sat 06:11:22 PM 38.1908 -82.3356 250° West 393 452 36,000  Level Indianapolis Center
Sat 06:12:24 PM 38.1536 -82.4644 250° West 389 448 36,000  Level Indianapolis Center
Sat 06:13:25 PM 38.1094 -82.6203 250° West 391 450 36,000  Level Indianapolis Center
Sat 06:14:27 PM 38.0717 -82.7503 250° West 391 450 36,000  Level Indianapolis Center
Sat 06:15:28 PM 38.0350 -82.8803 250° West 392 451 36,000  Level Indianapolis Center
Sat 06:16:30 PM 37.9961 -83.0086 249° West 391 450 36,000  Level Indianapolis Center
Sat 06:17:31 PM 37.9583 -83.1392 250° West 393 452 36,000  Level Indianapolis Center
Sat 06:18:33 PM 37.9197 -83.2706 250° West 397 457 36,000  Level Indianapolis Center
Sat 06:19:34 PM 37.8750 -83.4222 250° West 395 455 36,000  Level Indianapolis Center
Sat 06:20:36 PM 37.8358 -83.5514 249° West 395 455 36,000  Level Indianapolis Center
Sat 06:21:37 PM 37.7975 -83.6817 250° West 396 456 36,000  Level Indianapolis Center
Sat 06:22:39 PM 37.7586 -83.8103 249° West 394 453 36,000  Level Indianapolis Center
Sat 06:23:40 PM 37.7194 -83.9406 249° West 396 456 36,000  Level Indianapolis Center
Sat 06:24:42 PM 37.6797 -84.0714 249° West 398 458 36,000  Level Indianapolis Center
Sat 06:25:43 PM 37.6411 -84.2019 250° West 398 458 36,000  Level Indianapolis Center
Sat 06:26:45 PM 37.5933 -84.3533 248° West 397 457 36,000 97 Level Indianapolis Center
Sat 06:27:47 PM 37.5533 -84.4814 249° West 394 453 36,200 683 Climbing Indianapolis Center
Sat 06:28:48 PM 37.5156 -84.6067 249° West 387 445 37,400 878 Climbing Indianapolis Center
Sat 06:29:50 PM 37.4769 -84.7272 248° West 377 434 38,000 293 Climbing Indianapolis Center
Sat 06:30:51 PM 37.4400 -84.8486 249° West 372 428 38,000  Level Indianapolis Center
Sat 06:31:53 PM 37.4028 -84.9692 249° West 370 426 38,000  Level Indianapolis Center
Sat 06:32:55 PM 37.3647 -85.0908 249° West 373 429 38,000  Level Indianapolis Center
Sat 06:33:56 PM 37.3181 -85.2342 248° West 377 434 38,000  Level Indianapolis Center
Sat 06:34:58 PM 37.2803 -85.3572 249° West 378 435 38,000  Level Indianapolis Center
Sat 06:35:59 PM 37.2411 -85.4808 248° West 380 437 38,000  Level Indianapolis Center
Sat 06:37:01 PM 37.1978 -85.6133 248° West 383 441 38,000  Level Indianapolis Center
Sat 06:37:57 PM 37.1661 -85.7183 249° West 384 442 38,000  Level Memphis Center
Sat 06:38:57 PM 37.1267 -85.8403 248° West 384 442 38,000  Level Memphis Center
Sat 06:39:57 PM 37.0853 -85.9650 247° West 384 442 38,000  Level Memphis Center
Sat 06:40:57 PM 37.0422 -86.1025 249° West 384 442 38,000  Level Memphis Center
Sat 06:41:57 PM 37.0006 -86.2242 247° West 384 442 38,000  Level Memphis Center
Sat 06:42:57 PM 36.9586 -86.3458 247° West 382 440 38,000  Level Memphis Center
Sat 06:43:57 PM 36.9167 -86.4672 247° West 387 445 38,000  Level Memphis Center
Sat 06:44:57 PM 36.8575 -86.5792 237° Southwest 387 445 38,000  Level Memphis Center
Sat 06:45:57 PM 36.7964 -86.6908 236° Southwest 393 452 38,000  Level Memphis Center
Sat 06:46:57 PM 36.7392 -86.8022 237° Southwest 393 452 38,000  Level Memphis Center
Sat 06:47:57 PM 36.6778 -86.9161 236° Southwest 393 452 38,000  Level Memphis Center
Sat 06:48:57 PM 36.6183 -87.0272 236° Southwest 398 458 38,000  Level Memphis Center
Sat 06:49:57 PM 36.5567 -87.1381 235° Southwest 403 464 38,000  Level Memphis Center
Sat 06:50:57 PM 36.4969 -87.2542 237° Southwest 403 464 38,000  Level Memphis Center
Sat 06:51:57 PM 36.4350 -87.3622 235° Southwest 398 458 38,000  Level Memphis Center
Sat 06:52:57 PM 36.3753 -87.4753 237° Southwest 398 458 38,000  Level Memphis Center
Sat 06:53:57 PM 36.3131 -87.5858 235° Southwest 398 458 38,000  Level Memphis Center
Sat 06:54:57 PM 36.2531 -87.6958 236° Southwest 398 458 38,000  Level Memphis Center
Sat 06:55:57 PM 36.1989 -87.7953 236° Southwest 398 458 38,000  Level Memphis Center
Sat 06:56:57 PM 36.1342 -87.9028 233° Southwest 398 458 38,000  Level Memphis Center
Sat 06:57:57 PM 36.0758 -88.0150 237° Southwest 398 458 38,000  Level Memphis Center
Sat 06:58:57 PM 36.0153 -88.1244 236° Southwest 398 458 38,000  Level Memphis Center
Sat 06:59:57 PM 35.9506 -88.2314 233° Southwest 398 458 38,000  Level Memphis Center
Sat 07:00:57 PM 35.8878 -88.3406 235° Southwest 398 458 38,000  Level Memphis Center
Sat 07:01:57 PM 35.8269 -88.4522 236° Southwest 398 458 38,000  Level Memphis Center
Sat 07:02:57 PM 35.7639 -88.5611 235° Southwest 404 465 38,000  Level Memphis Center
Sat 07:03:57 PM 35.7008 -88.6722 235° Southwest 404 465 38,000  Level Memphis Center
Sat 07:04:57 PM 35.6378 -88.7836 235° Southwest 404 465 38,000  Level Memphis Center
Sat 07:05:57 PM 35.5703 -88.9097 237° Southwest 404 465 38,000  Level Memphis Center
Sat 07:06:57 PM 35.5131 -89.0053 234° Southwest 404 465 38,000  Level Memphis Center
Sat 07:07:57 PM 35.4497 -89.1183 236° Southwest 404 465 38,000  Level Memphis Center
Sat 07:08:57 PM 35.3858 -89.2264 234° Southwest 404 465 38,000  Level Memphis Center
Sat 07:09:57 PM 35.3244 -89.3339 235° Southwest 404 465 38,000  Level Memphis Center
Sat 07:10:57 PM 35.2606 -89.4467 235° Southwest 404 465 38,000  Level Memphis Center
Sat 07:11:57 PM 35.1986 -89.5542 235° Southwest 399 459 38,000  Level Memphis Center
Sat 07:12:57 PM 35.1367 -89.6614 235° Southwest 399 459 38,000  Level Memphis Center
Sat 07:13:57 PM 35.0769 -89.7708 236° Southwest 399 459 38,000  Level Memphis Center
Sat 07:14:57 PM 35.0128 -89.8831 235° Southwest 399 459 38,000  Level Memphis Center
Sat 07:15:57 PM 34.9464 -89.9922 233° Southwest 404 465 38,000  Level Memphis Center
Sat 07:16:57 PM 34.8819 -90.0989 234° Southwest 404 465 38,000  Level Memphis Center
Sat 07:17:57 PM 34.8175 -90.2053 234° Southwest 404 465 38,000  Level Memphis Center
Sat 07:18:57 PM 34.7550 -90.3117 234° Southwest 404 465 38,000  Level Memphis Center
Sat 07:19:57 PM 34.6839 -90.4253 233° Southwest 393 452 38,000  Level Memphis Center
Sat 07:20:57 PM 34.6233 -90.5289 235° Southwest 388 447 38,000  Level Memphis Center
Sat 07:21:57 PM 34.5628 -90.6319 235° Southwest 383 441 38,000  Level Memphis Center
Sat 07:22:57 PM 34.4997 -90.7350 233° Southwest 388 447 38,000  Level Memphis Center
Sat 07:23:57 PM 34.4347 -90.8406 233° Southwest 388 447 38,000  Level Memphis Center
Sat 07:24:57 PM 34.3739 -90.9436 234° Southwest 388 447 38,000  Level Memphis Center
Sat 07:25:57 PM 34.3086 -91.0511 234° Southwest 388 447 38,000  Level Memphis Center
Sat 07:26:57 PM 34.2453 -91.1561 234° Southwest 388 447 38,000  Level Memphis Center
Sat 07:27:57 PM 34.1800 -91.2611 233° Southwest 393 452 38,000  Level Memphis Center
Sat 07:28:57 PM 34.1122 -91.3708 233° Southwest 405 466 38,000  Level Memphis Center
Sat 07:29:57 PM 34.0531 -91.4653 233° Southwest 405 466 38,000  Level Memphis Center
Sat 07:30:57 PM 33.9853 -91.5772 234° Southwest 405 466 38,000  Level Memphis Center
Sat 07:31:57 PM 33.9194 -91.6864 234° Southwest 405 466 38,000  Level Memphis Center
Sat 07:32:57 PM 33.8514 -91.8003 234° Southwest 400 460 38,000  Level Memphis Center
Sat 07:33:57 PM 33.7894 -91.9169 237° Southwest 406 467 38,000  Level Memphis Center
Sat 07:36:19 PM 33.7003 -92.2058 250° West 404 465 38,000  Level Fort Worth Center
Sat 07:37:19 PM 33.6592 -92.3253 248° West 399 459 38,000  Level Fort Worth Center
Sat 07:38:19 PM 33.6217 -92.4322 247° West 399 459 38,000  Level Fort Worth Center
Sat 07:39:19 PM 33.5806 -92.5542 248° West 399 459 38,000  Level Fort Worth Center
Sat 07:40:19 PM 33.5414 -92.6761 249° West 399 459 38,000  Level Fort Worth Center
Sat 07:41:19 PM 33.4936 -92.7933 244° Southwest 399 459 38,000  Level Fort Worth Center
Sat 07:42:19 PM 33.4458 -92.9128 244° Southwest 399 459 38,000  Level Fort Worth Center
Sat 07:43:19 PM 33.4022 -93.0344 247° West 399 459 38,000  Level Fort Worth Center
Sat 07:44:19 PM 33.3539 -93.1486 243° Southwest 399 459 38,000  Level Fort Worth Center
Sat 07:45:19 PM 33.3078 -93.2675 245° Southwest 394 453 38,000  Level Fort Worth Center
Sat 07:46:19 PM 33.2617 -93.3867 245° Southwest 394 453 38,000  Level Fort Worth Center
Sat 07:47:19 PM 33.2150 -93.5028 244° Southwest 389 448 38,000  Level Fort Worth Center
Sat 07:48:19 PM 33.1667 -93.6242 245° Southwest 389 448 38,000  Level Fort Worth Center
Sat 07:49:19 PM 33.1200 -93.7403 244° Southwest 389 448 38,000  Level Fort Worth Center
Sat 07:50:19 PM 33.0733 -93.8586 245° Southwest 389 448 38,000  Level Fort Worth Center
Sat 07:51:19 PM 33.0267 -93.9769 245° Southwest 389 448 38,000  Level Fort Worth Center
Sat 07:52:18 PM 32.9794 -94.0925 244° Southwest 389 448 38,000  Level Fort Worth Center
Sat 07:53:19 PM 32.9306 -94.2206 246° West 389 448 38,000  Level Fort Worth Center
Sat 07:54:19 PM 32.8836 -94.3386 245° Southwest 389 448 38,000  Level Fort Worth Center
Sat 07:55:19 PM 32.8361 -94.4564 244° Southwest 389 448 38,000  Level Fort Worth Center
Sat 07:56:19 PM 32.7908 -94.5667 244° Southwest 389 448 38,000  Level Fort Worth Center
Sat 07:57:19 PM 32.7453 -94.6817 245° Southwest 389 448 38,000  Level Fort Worth Center
Sat 07:58:19 PM 32.6978 -94.7967 244° Southwest 389 448 38,000  Level Fort Worth Center
Sat 07:59:19 PM 32.6500 -94.9117 244° Southwest 389 448 38,000  Level Fort Worth Center
Sat 08:00:19 PM 32.6042 -95.0261 245° Southwest 389 448 38,000  Level Fort Worth Center
Sat 08:01:19 PM 32.5561 -95.1383 243° Southwest 389 448 38,000  Level Fort Worth Center
Sat 08:02:19 PM 32.5100 -95.2553 245° Southwest 389 448 38,000  Level Fort Worth Center
Sat 08:03:19 PM 32.4703 -95.3647 247° West 380 437 38,000  Level Fort Worth Center
Sat 08:04:19 PM 32.4219 -95.4814 244° Southwest 380 437 38,000  Level Fort Worth Center
Sat 08:05:19 PM 32.3756 -95.5931 244° Southwest 380 437 38,000  Level Fort Worth Center
Sat 08:06:19 PM 32.3311 -95.7047 245° Southwest 380 437 38,000  Level Fort Worth Center
Sat 08:07:19 PM 32.2783 -95.8186 241° Southwest 392 451 38,000  Level Fort Worth Center
Sat 08:08:19 PM 32.2317 -95.9300 244° Southwest 386 444 38,000  Level Fort Worth Center
Sat 08:09:19 PM 32.1911 -96.0314 245° Southwest 386 444 38,000  Level Fort Worth Center
Sat 08:10:18 PM 32.1422 -96.1425 243° Southwest 380 437 38,000  Level Fort Worth Center
Sat 08:11:19 PM 32.0953 -96.2558 244° Southwest 392 451 38,000  Level Fort Worth Center
Sat 08:12:19 PM 32.0483 -96.3692 244° Southwest 387 445 38,000  Level Fort Worth Center
Sat 08:13:18 PM 31.9992 -96.4800 242° Southwest 387 445 38,000 -600 Level Fort Worth Center
Sat 08:14:19 PM 31.9539 -96.5931 245° Southwest 387 445 36,800 -1,438 Descending Fort Worth Center
Sat 08:15:19 PM 31.9044 -96.7036 242° Southwest 382 440 35,100 -1,750 Descending Fort Worth Center
Sat 08:16:19 PM 31.8192 -96.7850 219° Southwest 393 452 33,300 -1,879 Descending Fort Worth Center
Sat 08:18:21 PM 31.6153 -96.9247 210° Southwest 423 487 29,400 -1,967 Descending Houston Center
Sat 08:19:22 PM 31.5122 -96.9967 211° Southwest 427 491 27,300 -2,244 Descending Houston Center
Sat 08:20:24 PM 31.3944 -97.0794 211° Southwest 420 483 24,800 -2,341 Descending Houston Center
Sat 08:21:25 PM 31.2892 -97.1508 210° Southwest 431 496 22,500 -2,311 Descending Houston Center
Sat 08:22:26 PM 31.1886 -97.2167 209° Southwest 414 476 20,100 -2,311 Descending Houston Center
Sat 08:23:27 PM 31.0806 -97.2586 198° South 407 468 17,800 -2,164 Descending Houston Center
Sat 08:24:28 PM 30.9811 -97.2975 199° South 401 461 15,700 -2,213 Descending Houston Center
Sat 08:25:29 PM 30.8736 -97.3389 198° South 401 461 13,300 -1,475 Descending Houston Center
Sat 08:26:30 PM 30.7794 -97.3778 200° South 356 410 12,700 -1,366 Descending Houston Center
Sat 08:27:32 PM 30.7008 -97.4264 208° Southwest 318 366 10,500 -1,805 Descending Houston Center
Sat 08:28:33 PM 30.6275 -97.4717 208° Southwest 301 346 9,000 -1,623 Descending Houston Center
Sat 08:29:34 PM 30.5583 -97.5150 208° Southwest 283 326 7,200 -1,869 Descending Houston Center
Sat 08:30:35 PM 30.4881 -97.5589 208° Southwest 283 326 5,200 -2,066 Descending Houston Center
Sat 08:31:36 PM 30.4092 -97.6086 209° Southwest 276 318 3,000 -1,475 Descending Houston Center
Sat 08:32:37 PM 30.3489 -97.6464 208° Southwest 254 292 2,200 -443 Descending Houston Center
Sat 08:33:38 PM 30.2983 -97.6761 207° Southwest 209 241 2,100 -98 Descending Houston Center

Login

Don't have an account? Register now (free) for customized features, flight alerts, and more!